LHBP/BUD METAR and TAF weather

Enter ICAO airport designator
Station Type Date Time Source
LHBP METAR 2020/08/05 17:00 UTC NOAA

LHBP 051700Z 33005KT 290V350 CAVOK 24/19 Q1014 NOSIG


Station Type Date Time Source
LHBP Decoded METAR 2020/08/05 17:00 UTC NOAA

Budapest / Ferihegy, Hungary (LHBP) 47-26N 019-16E 185M
Aug 05, 2020 - 01:00 PM EDT / 2020.08.05 1700 UTC
Wind: from the NNW (330 degrees) at 6 MPH (5 KT) (direction variable):0
Visibility: greater than 7 mile(s):0
Temperature: 75 F (24 C)
Dew Point: 66 F (19 C)
Relative Humidity: 73%
Pressure (altimeter): 29.94 in. Hg (1014 hPa)
ob: LHBP 051700Z 33005KT 290V350 CAVOK 24/19 Q1014 NOSIG
cycle: 17

Station Type Date Time Source
LHBP TAF 2020/08/05 12:27 UTC NOAA

TAF TAF LHBP 051115Z 0512/0612 VRB03KT 9999 SCT040 SCT100
TEMPO 0512/0603 -TSRA -SHRA SCT028CB SCT035 BKN060
BECMG 0515/0517 02006KT CAVOK
BECMG 0606/0608 08010KT FEW030
BECMG 0608/0610 CAVOK

Example: see airport list